Time;durP1;ratioP1;P1;durP2;ratioP2;P2;SDS_P1;SDS_P2;PMS_P1;PMS_P2;Temp;Humidity;BMP_temperature;BMP_pressure;BME280_temperature;BME280_humidity;BME280_pressure;Samples;Min_cycle;Max_cycle;Signal;HPM_P1;HPM_P2
2021/12/13 00:02:10;;;;;;;;;;;10.30;99.90;;;;;;5071465;28;19964;-86
2021/12/13 00:04:39;;;;;;;;;;;10.30;99.90;;;;;;5069104;28;19925;-85
2021/12/13 00:07:08;;;;;;;;;;;10.30;99.90;;;;;;5071149;28;19946;-86
2021/12/13 00:09:39;;;;;;;;;;;10.20;99.90;;;;;;5072236;28;20410;-87
2021/12/13 00:12:07;;;;;;;;;;;10.20;99.90;;;;;;5080234;28;20033;-87
2021/12/13 00:14:36;;;;;;;;;;;10.20;99.90;;;;;;5082658;28;19924;-87
2021/12/13 00:17:05;;;;;;;;;;;10.20;99.90;;;;;;5075295;28;19924;-87
2021/12/13 00:19:34;;;;;;;;;;;10.30;99.90;;;;;;5068633;28;20352;-87
2021/12/13 00:22:03;;;;;;;;;;;10.30;99.90;;;;;;5066555;28;20384;-87
2021/12/13 00:24:31;;;;;;;;;;;10.20;99.90;;;;;;5067864;28;20417;-87
2021/12/13 00:27:02;;;;;;;;;;;10.60;99.90;;;;;;5079623;28;19921;-86
2021/12/13 00:29:33;;;;;;;;;;;10.20;99.90;;;;;;5068449;28;20192;-86
2021/12/13 00:32:02;;;;;;;;;;;10.30;99.90;;;;;;5068825;28;20424;-86
2021/12/13 00:34:33;;;;;;;;;;;10.30;99.90;;;;;;5067983;28;20304;-85
2021/12/13 00:37:04;;;;;;;;;;;10.30;99.90;;;;;;5067522;28;19973;-86
2021/12/13 00:39:33;;;;;;;;;;;10.30;99.90;;;;;;5067940;28;20351;-86
2021/12/13 00:42:02;;;;;;;;;;;10.30;99.90;;;;;;5065642;28;19925;-85
2021/12/13 00:44:32;;;;;;;;;;;10.30;99.90;;;;;;5068185;28;20397;-86
2021/12/13 00:47:02;;;;;;;;;;;10.20;99.90;;;;;;5069567;28;19936;-85
2021/12/13 00:49:30;;;;;;;;;;;10.30;99.90;;;;;;5068043;28;19928;-85
2021/12/13 00:51:59;;;;;;;;;;;10.30;99.90;;;;;;5068366;28;20335;-86
2021/12/13 00:54:27;;;;;;;;;;;10.30;99.90;;;;;;5084074;28;19988;-85
2021/12/13 00:57:08;;;;;;;;;;;10.30;99.90;;;;;;5084231;28;19924;-85
2021/12/13 00:59:36;;;;;;;;;;;10.30;99.90;;;;;;5072394;28;19920;-85
2021/12/13 01:02:05;;;;;;;;;;;10.30;99.90;;;;;;5071122;28;19931;-86
2021/12/13 01:04:53;;;;;;;;;;;10.30;99.90;;;;;;5066575;28;20014;-85
2021/12/13 01:07:44;;;;;;;;;;;10.20;99.90;;;;;;5060173;28;19928;-86
2021/12/13 01:10:30;;;;;;;;;;;10.30;99.90;;;;;;5068065;28;19920;-85
2021/12/13 01:12:59;;;;;;;;;;;10.20;99.90;;;;;;5068540;28;19920;-85
2021/12/13 01:15:32;;;;;;;;;;;10.20;99.90;;;;;;5066347;28;19953;-86
2021/12/13 01:18:16;;;;;;;;;;;10.20;99.90;;;;;;5070492;28;20376;-86
2021/12/13 01:20:58;;;;;;;;;;;10.20;99.90;;;;;;5067085;28;19969;-86
2021/12/13 01:23:39;;;;;;;;;;;10.20;99.90;;;;;;5071435;28;20019;-87
2021/12/13 01:26:26;;;;;;;;;;;10.20;99.90;;;;;;5066781;28;19931;-87
2021/12/13 01:28:56;;;;;;;;;;;10.20;99.90;;;;;;5075335;28;19952;-87
2021/12/13 01:31:26;;;;;;;;;;;10.70;99.90;;;;;;5065524;28;19928;-87
2021/12/13 01:33:54;;;;;;;;;;;10.40;99.90;;;;;;5065520;28;19925;-87
2021/12/13 01:36:25;;;;;;;;;;;10.20;99.90;;;;;;5065781;28;19920;-88
2021/12/13 01:38:53;;;;;;;;;;;10.20;99.90;;;;;;5066428;28;19935;-88
2021/12/13 01:41:21;;;;;;;;;;;10.20;99.90;;;;;;5057628;28;19931;-87
2021/12/13 01:43:49;;;;;;;;;;;10.20;99.90;;;;;;5065425;28;19924;-87
2021/12/13 01:46:18;;;;;;;;;;;10.20;99.90;;;;;;5073207;28;19974;-87
2021/12/13 01:48:46;;;;;;;;;;;10.10;99.90;;;;;;5075023;28;19935;-88
2021/12/13 01:51:14;;;;;;;;;;;10.10;99.90;;;;;;5070539;28;19936;-85
2021/12/13 01:53:42;;;;;;;;;;;10.20;99.90;;;;;;5068051;28;19924;-85
2021/12/13 01:56:24;;;;;;;;;;;10.10;99.90;;;;;;5065745;28;19925;-85
2021/12/13 01:58:51;;;;;;;;;;;10.10;99.90;;;;;;5062864;28;19924;-85
2021/12/13 02:01:21;;;;;;;;;;;10.10;99.90;;;;;;5061990;28;19927;-85
2021/12/13 02:03:54;;;;;;;;;;;10.10;99.90;;;;;;5067029;28;20391;-85
2021/12/13 02:06:26;;;;;;;;;;;10.10;99.90;;;;;;5064087;28;19930;-85
2021/12/13 02:08:56;;;;;;;;;;;10.10;99.90;;;;;;5068000;28;20308;-86
2021/12/13 02:11:24;;;;;;;;;;;10.20;99.90;;;;;;5065940;28;19935;-85
2021/12/13 02:14:06;;;;;;;;;;;10.10;99.90;;;;;;5067609;28;19975;-84
2021/12/13 02:19:24;;;;;;;;;;;10.10;99.90;;;;;;5076034;28;19921;-85
2021/12/13 02:21:56;;;;;;;;;;;10.10;99.90;;;;;;5066804;28;19925;-85
2021/12/13 02:24:24;;;;;;;;;;;10.10;99.90;;;;;;5060564;28;19932;-85
2021/12/13 02:26:51;;;;;;;;;;;10.10;99.90;;;;;;5069435;28;20022;-86
2021/12/13 02:29:22;;;;;;;;;;;10.10;99.90;;;;;;5069596;28;19928;-85
2021/12/13 02:31:49;;;;;;;;;;;10.10;99.90;;;;;;5069293;28;19924;-86
2021/12/13 02:34:18;;;;;;;;;;;10.10;99.90;;;;;;5069248;28;19926;-85
2021/12/13 02:36:47;;;;;;;;;;;10.10;99.90;;;;;;5070090;28;19930;-86
2021/12/13 02:39:15;;;;;;;;;;;10.10;99.90;;;;;;5057208;28;21423;-85
2021/12/13 02:41:44;;;;;;;;;;;10.10;99.90;;;;;;5083941;28;19931;-85
2021/12/13 02:44:16;;;;;;;;;;;10.10;99.90;;;;;;5069871;28;20011;-85
2021/12/13 02:46:44;;;;;;;;;;;10.00;99.90;;;;;;5069684;28;20423;-85
2021/12/13 02:49:13;;;;;;;;;;;10.00;99.90;;;;;;5071345;28;19935;-85
2021/12/13 02:51:42;;;;;;;;;;;10.00;99.90;;;;;;5069313;28;19934;-86
2021/12/13 02:54:11;;;;;;;;;;;10.00;99.90;;;;;;5084737;28;19920;-86
2021/12/13 02:56:40;;;;;;;;;;;10.00;99.90;;;;;;5070670;28;19987;-85
2021/12/13 02:59:09;;;;;;;;;;;10.00;99.90;;;;;;5081863;28;19920;-86
2021/12/13 03:01:39;;;;;;;;;;;9.90;99.90;;;;;;5071800;28;19953;-86
2021/12/13 03:04:09;;;;;;;;;;;9.90;99.90;;;;;;5067309;28;19944;-86
2021/12/13 03:06:37;;;;;;;;;;;9.90;99.90;;;;;;5067368;28;19924;-85
2021/12/13 03:09:08;;;;;;;;;;;9.90;99.90;;;;;;5068708;28;19924;-85
2021/12/13 03:11:35;;;;;;;;;;;9.90;99.90;;;;;;5069512;28;19924;-85
2021/12/13 03:14:04;;;;;;;;;;;9.90;99.90;;;;;;5066242;28;19924;-85
2021/12/13 03:16:33;;;;;;;;;;;9.90;99.90;;;;;;5083972;28;19928;-86
2021/12/13 03:19:02;;;;;;;;;;;9.90;99.90;;;;;;5069649;28;20041;-86
2021/12/13 03:21:50;;;;;;;;;;;10.00;99.90;;;;;;5069715;28;19924;-86
2021/12/13 03:24:26;;;;;;;;;;;9.90;99.90;;;;;;5068468;28;19924;-86
2021/12/13 03:27:01;;;;;;;;;;;9.90;99.90;;;;;;5069307;28;19925;-86
2021/12/13 03:29:34;;;;;;;;;;;9.90;99.90;;;;;;5069792;28;20355;-86
2021/12/13 03:32:03;;;;;;;;;;;9.90;99.90;;;;;;5066017;28;19928;-85
2021/12/13 03:34:35;;;;;;;;;;;9.90;99.90;;;;;;5067065;28;19929;-85
2021/12/13 03:37:03;;;;;;;;;;;9.90;99.90;;;;;;5085040;28;20022;-85
2021/12/13 03:39:32;;;;;;;;;;;9.90;99.90;;;;;;5069970;28;20183;-86
2021/12/13 03:42:00;;;;;;;;;;;9.90;99.90;;;;;;5067856;28;20631;-87
2021/12/13 03:44:29;;;;;;;;;;;9.80;99.90;;;;;;5067969;28;19943;-86
2021/12/13 03:46:58;;;;;;;;;;;9.80;99.90;;;;;;5067194;28;20261;-86
2021/12/13 03:49:27;;;;;;;;;;;9.80;99.90;;;;;;5061745;28;20035;-86
2021/12/13 03:51:55;;;;;;;;;;;9.80;99.90;;;;;;5068559;28;19921;-85
2021/12/13 03:54:26;;;;;;;;;;;9.80;99.90;;;;;;5066366;28;19920;-85
2021/12/13 03:56:53;;;;;;;;;;;9.90;99.90;;;;;;5068293;28;20018;-85
2021/12/13 03:59:22;;;;;;;;;;;9.90;99.90;;;;;;5071411;28;19924;-85
2021/12/13 04:01:50;;;;;;;;;;;9.80;99.90;;;;;;5080317;28;19924;-85
2021/12/13 04:04:19;;;;;;;;;;;9.80;99.90;;;;;;5084787;28;20011;-86
2021/12/13 04:06:49;;;;;;;;;;;9.80;99.90;;;;;;5068574;28;19942;-85
2021/12/13 04:09:16;;;;;;;;;;;9.80;99.90;;;;;;5067188;28;19992;-86
2021/12/13 04:11:44;;;;;;;;;;;9.80;99.90;;;;;;5066195;28;20004;-85
2021/12/13 04:14:17;;;;;;;;;;;9.80;99.90;;;;;;5067069;28;20106;-85
2021/12/13 04:16:50;;;;;;;;;;;9.90;99.90;;;;;;5066310;28;19939;-85
2021/12/13 04:19:18;;;;;;;;;;;9.80;99.90;;;;;;5068239;28;20019;-85
2021/12/13 04:21:47;;;;;;;;;;;9.80;99.90;;;;;;5063861;28;19935;-85
2021/12/13 04:24:16;;;;;;;;;;;9.70;99.90;;;;;;5066932;28;19939;-85
2021/12/13 04:26:45;;;;;;;;;;;9.80;99.90;;;;;;5067660;28;19920;-85
2021/12/13 04:29:13;;;;;;;;;;;9.70;99.90;;;;;;5067348;28;19929;-85
2021/12/13 04:31:41;;;;;;;;;;;9.70;99.90;;;;;;5071135;28;19924;-85
2021/12/13 04:34:07;;;;;;;;;;;9.70;99.90;;;;;;5065268;28;20484;-85
2021/12/13 04:36:36;;;;;;;;;;;9.70;99.90;;;;;;5066343;28;20553;-85
2021/12/13 04:39:05;;;;;;;;;;;9.70;99.90;;;;;;5067115;28;19943;-86
2021/12/13 04:41:36;;;;;;;;;;;9.70;99.90;;;;;;5067266;28;20344;-86
2021/12/13 04:44:05;;;;;;;;;;;9.70;99.90;;;;;;5066092;28;20310;-85
2021/12/13 04:46:34;;;;;;;;;;;9.70;99.90;;;;;;5065701;28;20394;-86
2021/12/13 04:49:03;;;;;;;;;;;8.90;99.90;;;;;;5066862;28;19928;-86
2021/12/13 04:51:36;;;;;;;;;;;9.70;99.90;;;;;;5055618;28;19932;-86
2021/12/13 04:54:02;;;;;;;;;;;9.60;99.90;;;;;;5065422;28;19962;-86
2021/12/13 04:56:31;;;;;;;;;;;9.70;99.90;;;;;;5066178;28;19924;-86
2021/12/13 04:59:00;;;;;;;;;;;9.70;99.90;;;;;;5065447;28;20050;-85
2021/12/13 05:01:28;;;;;;;;;;;9.70;99.90;;;;;;5085317;28;20015;-86
2021/12/13 05:03:56;;;;;;;;;;;9.70;99.90;;;;;;5090439;28;19968;-86
2021/12/13 05:06:24;;;;;;;;;;;9.70;99.90;;;;;;5072857;28;19925;-85
2021/12/13 05:08:53;;;;;;;;;;;9.70;99.90;;;;;;5067966;28;20019;-85
2021/12/13 05:11:20;;;;;;;;;;;10.50;99.90;;;;;;5066117;28;19924;-85
2021/12/13 05:13:48;;;;;;;;;;;9.70;99.90;;;;;;5064464;28;19961;-85
2021/12/13 05:16:19;;;;;;;;;;;9.70;99.90;;;;;;5065957;28;19959;-85
2021/12/13 05:18:48;;;;;;;;;;;9.70;99.90;;;;;;5062278;28;21063;-85
2021/12/13 05:21:24;;;;;;;;;;;9.70;99.90;;;;;;5066377;28;19927;-86
2021/12/13 05:23:54;;;;;;;;;;;9.70;99.90;;;;;;5066148;28;19935;-86
2021/12/13 05:26:29;;;;;;;;;;;9.70;99.90;;;;;;5062356;28;20079;-86
2021/12/13 05:28:57;;;;;;;;;;;9.70;99.90;;;;;;5064900;28;19934;-86
2021/12/13 05:31:26;;;;;;;;;;;9.70;99.90;;;;;;5073619;28;19924;-89
2021/12/13 05:34:00;;;;;;;;;;;9.70;99.90;;;;;;5077641;28;19921;-88
2021/12/13 05:36:29;;;;;;;;;;;9.70;99.90;;;;;;5076687;28;19931;-88
2021/12/13 05:39:02;;;;;;;;;;;9.70;99.90;;;;;;5072274;28;19920;-89
2021/12/13 05:41:30;;;;;;;;;;;9.70;99.90;;;;;;5068593;28;19931;-89
2021/12/13 05:43:58;;;;;;;;;;;9.70;99.90;;;;;;5068628;28;19920;-91
2021/12/13 05:46:33;;;;;;;;;;;9.70;99.90;;;;;;5066871;28;19962;-88
2021/12/13 05:49:03;;;;;;;;;;;9.70;99.90;;;;;;5067260;28;19920;-88
2021/12/13 05:51:32;;;;;;;;;;;9.70;99.90;;;;;;5067366;28;20317;-88
2021/12/13 05:54:01;;;;;;;;;;;9.70;99.90;;;;;;5067959;28;19924;-86
2021/12/13 05:56:30;;;;;;;;;;;9.80;99.90;;;;;;5066150;28;19924;-86
2021/12/13 05:58:58;;;;;;;;;;;10.10;99.90;;;;;;5071810;28;19935;-85
2021/12/13 06:01:28;;;;;;;;;;;9.80;99.90;;;;;;5072661;28;19924;-85
2021/12/13 06:04:08;;;;;;;;;;;9.70;99.90;;;;;;5072561;28;19931;-85
2021/12/13 06:06:42;;;;;;;;;;;9.80;99.90;;;;;;5072690;28;19999;-85
2021/12/13 06:09:09;;;;;;;;;;;9.70;99.90;;;;;;5072264;28;20336;-85
2021/12/13 06:11:35;;;;;;;;;;;9.70;99.90;;;;;;5074647;28;19974;-86
2021/12/13 06:14:04;;;;;;;;;;;9.80;99.90;;;;;;5073127;28;19928;-86
2021/12/13 06:16:37;;;;;;;;;;;9.70;99.90;;;;;;5074735;28;19931;-85
2021/12/13 06:19:10;;;;;;;;;;;9.70;99.90;;;;;;5076245;28;20203;-85
2021/12/13 06:21:45;;;;;;;;;;;9.70;99.90;;;;;;5078541;28;20345;-85
2021/12/13 06:24:13;;;;;;;;;;;9.70;99.90;;;;;;5069864;28;19935;-85
2021/12/13 06:26:40;;;;;;;;;;;9.70;99.90;;;;;;5069920;28;19951;-85
2021/12/13 06:29:09;;;;;;;;;;;9.90;99.90;;;;;;5071780;28;20029;-86
2021/12/13 06:31:36;;;;;;;;;;;9.70;99.90;;;;;;5070692;28;19924;-85
2021/12/13 06:34:05;;;;;;;;;;;9.70;99.90;;;;;;5070194;28;19920;-85
2021/12/13 06:36:34;;;;;;;;;;;9.70;99.90;;;;;;5070741;28;20023;-85
2021/12/13 06:39:04;;;;;;;;;;;9.70;99.90;;;;;;5072352;28;19927;-85
2021/12/13 06:41:36;;;;;;;;;;;9.70;99.90;;;;;;5082134;28;19928;-85
2021/12/13 06:44:05;;;;;;;;;;;9.70;99.90;;;;;;5089974;28;19918;-84
2021/12/13 06:46:35;;;;;;;;;;;9.70;99.90;;;;;;5071284;28;19973;-85
2021/12/13 06:49:07;;;;;;;;;;;9.70;99.90;;;;;;5072689;28;19935;-85
2021/12/13 06:51:40;;;;;;;;;;;10.90;99.90;;;;;;5072473;28;20015;-85
2021/12/13 06:54:09;;;;;;;;;;;9.70;99.90;;;;;;5079379;28;19924;-83
2021/12/13 06:56:36;;;;;;;;;;;9.70;99.90;;;;;;5090428;28;19920;-85
2021/12/13 06:59:05;;;;;;;;;;;9.70;99.90;;;;;;5090662;28;19930;-85
2021/12/13 07:01:33;;;;;;;;;;;9.70;99.90;;;;;;5087915;28;19931;-85
2021/12/13 07:04:02;;;;;;;;;;;9.70;99.90;;;;;;5084840;28;19940;-85
2021/12/13 07:06:29;;;;;;;;;;;9.70;99.90;;;;;;5072814;28;19931;-84
2021/12/13 07:09:06;;;;;;;;;;;9.70;99.90;;;;;;5076022;28;20463;-84
2021/12/13 07:11:42;;;;;;;;;;;9.70;99.90;;;;;;5074194;28;19920;-84
2021/12/13 07:14:13;;;;;;;;;;;9.70;99.90;;;;;;5073526;28;19924;-85
2021/12/13 07:16:41;;;;;;;;;;;9.70;99.90;;;;;;5075323;28;20020;-84
2021/12/13 07:19:11;;;;;;;;;;;9.70;99.90;;;;;;5071637;28;20286;-84
2021/12/13 07:21:42;;;;;;;;;;;9.70;99.90;;;;;;5074407;28;19942;-84
2021/12/13 07:24:12;;;;;;;;;;;9.70;99.90;;;;;;5071345;28;19967;-84
2021/12/13 07:26:40;;;;;;;;;;;9.70;99.90;;;;;;5072505;28;19924;-84
2021/12/13 07:29:09;;;;;;;;;;;9.70;99.90;;;;;;5070756;28;19920;-84
2021/12/13 07:31:37;;;;;;;;;;;9.80;99.90;;;;;;5071936;28;19935;-84
2021/12/13 07:34:09;;;;;;;;;;;9.80;99.90;;;;;;5070134;28;19921;-85
2021/12/13 07:36:36;;;;;;;;;;;9.80;99.90;;;;;;5073029;28;19929;-85
2021/12/13 07:39:08;;;;;;;;;;;9.80;99.90;;;;;;5073995;28;19924;-85
2021/12/13 07:41:42;;;;;;;;;;;9.80;99.90;;;;;;5074089;28;19928;-85
2021/12/13 07:44:12;;;;;;;;;;;9.80;99.90;;;;;;5074511;28;19928;-85
2021/12/13 07:46:41;;;;;;;;;;;9.80;99.90;;;;;;5072861;28;19925;-85
2021/12/13 07:49:10;;;;;;;;;;;9.80;99.90;;;;;;5073620;28;19989;-86
2021/12/13 07:51:38;;;;;;;;;;;9.80;99.90;;;;;;5074393;28;19942;-85
2021/12/13 07:54:07;;;;;;;;;;;9.80;99.90;;;;;;5071889;28;19924;-86
2021/12/13 07:56:43;;;;;;;;;;;9.80;99.90;;;;;;5071642;28;19920;-85
2021/12/13 07:59:11;;;;;;;;;;;10.60;99.90;;;;;;5071475;28;19920;-86
2021/12/13 08:01:42;;;;;;;;;;;10.30;99.90;;;;;;5072011;28;20264;-85
2021/12/13 08:04:11;;;;;;;;;;;9.90;99.90;;;;;;5078317;28;19908;-85
2021/12/13 08:06:39;;;;;;;;;;;9.90;99.90;;;;;;5075606;28;19921;-86
2021/12/13 08:09:11;;;;;;;;;;;9.90;99.90;;;;;;5071454;28;19934;-85
2021/12/13 08:11:41;;;;;;;;;;;9.90;99.90;;;;;;5065309;28;19928;-86
2021/12/13 08:14:10;;;;;;;;;;;9.90;99.90;;;;;;5071588;28;19931;-85
2021/12/13 08:16:38;;;;;;;;;;;9.90;99.90;;;;;;5068857;28;19930;-86
2021/12/13 08:19:07;;;;;;;;;;;9.90;99.90;;;;;;5071343;28;19931;-86
2021/12/13 08:21:37;;;;;;;;;;;9.90;99.90;;;;;;5071053;28;19921;-86
2021/12/13 08:24:04;;;;;;;;;;;10.00;99.90;;;;;;5067487;28;19953;-86
2021/12/13 08:26:32;;;;;;;;;;;10.00;99.90;;;;;;5070909;28;19939;-86
2021/12/13 08:29:00;;;;;;;;;;;10.00;99.90;;;;;;5072303;28;19924;-86
2021/12/13 08:31:29;;;;;;;;;;;10.20;99.90;;;;;;5067547;28;20296;-86
2021/12/13 08:33:58;;;;;;;;;;;10.00;99.90;;;;;;5070007;28;20074;-86
2021/12/13 08:36:29;;;;;;;;;;;10.00;99.90;;;;;;5068479;28;19929;-86
2021/12/13 08:39:00;;;;;;;;;;;10.00;99.90;;;;;;5067455;28;19960;-86
2021/12/13 08:41:29;;;;;;;;;;;10.00;99.90;;;;;;5069389;28;19934;-86
2021/12/13 08:43:59;;;;;;;;;;;10.10;99.90;;;;;;5067938;28;20398;-87
2021/12/13 08:46:36;;;;;;;;;;;10.10;99.90;;;;;;5070354;28;19947;-87
2021/12/13 08:49:12;;;;;;;;;;;10.10;99.90;;;;;;5069677;28;19928;-87
2021/12/13 08:51:49;;;;;;;;;;;10.10;99.90;;;;;;5070223;28;19920;-86
2021/12/13 08:54:16;;;;;;;;;;;10.10;99.90;;;;;;5071049;28;20039;-86
2021/12/13 08:56:44;;;;;;;;;;;10.10;99.90;;;;;;5070221;28;19991;-86
2021/12/13 08:59:18;;;;;;;;;;;10.20;99.90;;;;;;5071370;28;19921;-86
2021/12/13 09:01:49;;;;;;;;;;;10.20;99.90;;;;;;5072085;28;19973;-84
2021/12/13 09:04:21;;;;;;;;;;;10.20;99.90;;;;;;5086278;28;20569;-85
2021/12/13 09:06:53;;;;;;;;;;;10.20;99.90;;;;;;5086077;28;19924;-84
2021/12/13 09:09:20;;;;;;;;;;;10.20;99.90;;;;;;5065347;28;20615;-85
2021/12/13 09:11:55;;;;;;;;;;;10.20;99.90;;;;;;5069903;28;20455;-87
2021/12/13 09:14:23;;;;;;;;;;;10.30;99.90;;;;;;5068591;28;20343;-86
2021/12/13 09:17:06;;;;;;;;;;;10.30;99.90;;;;;;5067346;28;19943;-85
2021/12/13 09:19:47;;;;;;;;;;;10.50;99.90;;;;;;5069861;28;20319;-84
2021/12/13 09:22:17;;;;;;;;;;;10.30;99.90;;;;;;5069237;28;19924;-84
2021/12/13 09:24:48;;;;;;;;;;;10.30;99.90;;;;;;5068581;28;20035;-84
2021/12/13 09:27:18;;;;;;;;;;;10.30;99.90;;;;;;5068615;28;19920;-85
2021/12/13 09:29:50;;;;;;;;;;;10.30;99.90;;;;;;5070576;28;19920;-84
2021/12/13 09:32:19;;;;;;;;;;;10.40;99.90;;;;;;5073951;28;19931;-85
2021/12/13 09:34:47;;;;;;;;;;;10.40;99.90;;;;;;5071067;28;19931;-84
2021/12/13 09:37:15;;;;;;;;;;;10.40;99.90;;;;;;5070977;28;19924;-85
2021/12/13 09:39:42;;;;;;;;;;;10.40;99.90;;;;;;5071526;28;20019;-85
2021/12/13 09:42:10;;;;;;;;;;;10.50;99.90;;;;;;5072491;28;19928;-84
2021/12/13 09:44:40;;;;;;;;;;;10.40;99.90;;;;;;5073798;28;19928;-85
2021/12/13 09:47:09;;;;;;;;;;;10.40;99.90;;;;;;5071364;28;19920;-84
2021/12/13 09:49:39;;;;;;;;;;;10.50;99.90;;;;;;5073209;28;19921;-85
2021/12/13 09:52:09;;;;;;;;;;;10.60;99.90;;;;;;5072930;28;19935;-85
2021/12/13 09:54:38;;;;;;;;;;;10.50;99.90;;;;;;5070642;28;19927;-85
2021/12/13 09:57:07;;;;;;;;;;;10.60;99.90;;;;;;5069673;28;19979;-84
2021/12/13 09:59:35;;;;;;;;;;;10.60;99.90;;;;;;5085106;28;19928;-84
2021/12/13 10:02:04;;;;;;;;;;;10.70;99.90;;;;;;5074179;28;19956;-85
2021/12/13 10:04:33;;;;;;;;;;;10.30;99.90;;;;;;5070635;28;19928;-85
2021/12/13 10:07:02;;;;;;;;;;;10.80;99.90;;;;;;5071704;28;20370;-85
2021/12/13 10:09:30;;;;;;;;;;;10.80;99.90;;;;;;5071017;28;20368;-85
2021/12/13 10:12:01;;;;;;;;;;;10.80;99.90;;;;;;5071770;28;19925;-86
2021/12/13 10:14:29;;;;;;;;;;;10.90;99.90;;;;;;5070663;28;19982;-85
2021/12/13 10:16:56;;;;;;;;;;;11.50;99.90;;;;;;5073133;28;20295;-85
2021/12/13 10:19:25;;;;;;;;;;;10.90;99.90;;;;;;5072842;28;20012;-85
2021/12/13 10:21:52;;;;;;;;;;;10.90;99.90;;;;;;5073602;28;19921;-85
2021/12/13 10:24:22;;;;;;;;;;;11.00;99.90;;;;;;5072179;28;20320;-86
2021/12/13 10:26:50;;;;;;;;;;;11.00;99.90;;;;;;5071304;28;19920;-86
2021/12/13 10:29:17;;;;;;;;;;;11.00;99.90;;;;;;5070450;28;19988;-85
2021/12/13 10:31:46;;;;;;;;;;;11.10;99.90;;;;;;5071254;28;19928;-86
2021/12/13 10:34:16;;;;;;;;;;;11.10;99.90;;;;;;5073226;28;19931;-85
2021/12/13 10:36:44;;;;;;;;;;;11.30;99.90;;;;;;5081611;28;19928;-86
2021/12/13 10:39:12;;;;;;;;;;;11.30;99.90;;;;;;5078807;28;19920;-87
2021/12/13 10:41:42;;;;;;;;;;;11.40;99.90;;;;;;5075295;28;19920;-86
2021/12/13 10:44:11;;;;;;;;;;;11.40;99.90;;;;;;5071053;28;19987;-85
2021/12/13 10:46:39;;;;;;;;;;;11.70;99.90;;;;;;5073187;28;19924;-86
2021/12/13 10:49:08;;;;;;;;;;;11.50;99.90;;;;;;5070326;28;19971;-85
2021/12/13 10:51:37;;;;;;;;;;;11.50;99.90;;;;;;5071077;28;19959;-86
2021/12/13 10:54:05;;;;;;;;;;;11.40;99.90;;;;;;5070166;28;20464;-85
2021/12/13 10:56:35;;;;;;;;;;;11.30;99.90;;;;;;5072488;28;19920;-86
2021/12/13 10:59:04;;;;;;;;;;;11.30;99.90;;;;;;5066065;28;19920;-86
2021/12/13 11:01:32;;;;;;;;;;;11.30;99.90;;;;;;5071706;28;19924;-86
2021/12/13 11:04:01;;;;;;;;;;;11.30;99.90;;;;;;5070491;28;20004;-86
2021/12/13 11:06:28;;;;;;;;;;;11.40;99.90;;;;;;5070717;28;20386;-86
2021/12/13 11:08:56;;;;;;;;;;;11.40;99.90;;;;;;5070924;28;19924;-86
2021/12/13 11:11:24;;;;;;;;;;;11.40;99.90;;;;;;5072806;28;20386;-86
2021/12/13 11:13:52;;;;;;;;;;;11.40;99.90;;;;;;5071322;28;19931;-86
2021/12/13 11:16:21;;;;;;;;;;;11.40;99.90;;;;;;5074983;28;19924;-86
2021/12/13 11:18:48;;;;;;;;;;;11.40;99.90;;;;;;5077664;28;19924;-86
2021/12/13 11:21:17;;;;;;;;;;;11.40;99.90;;;;;;5070875;28;19920;-86
2021/12/13 11:23:44;;;;;;;;;;;11.40;99.90;;;;;;5073438;28;20284;-86
2021/12/13 11:26:11;;;;;;;;;;;11.50;99.90;;;;;;5072522;28;19924;-86
2021/12/13 11:28:40;;;;;;;;;;;11.50;99.90;;;;;;5072643;28;19924;-86
2021/12/13 11:31:10;;;;;;;;;;;11.70;99.90;;;;;;5073099;28;19983;-86
2021/12/13 11:33:57;;;;;;;;;;;11.80;99.90;;;;;;5074731;28;20362;-86
2021/12/13 11:36:32;;;;;;;;;;;11.80;99.90;;;;;;5069955;28;19927;-86
2021/12/13 11:39:26;;;;;;;;;;;11.90;99.90;;;;;;5081956;28;19932;-86
2021/12/13 11:42:13;;;;;;;;;;;12.00;99.90;;;;;;5075782;28;19924;-86
2021/12/13 11:44:49;;;;;;;;;;;12.00;99.90;;;;;;5080440;28;20011;-86
2021/12/13 11:47:34;;;;;;;;;;;12.10;99.90;;;;;;5081687;28;19950;-86
2021/12/13 11:50:30;;;;;;;;;;;12.10;99.90;;;;;;5084342;28;19929;-86
2021/12/13 11:53:20;;;;;;;;;;;12.00;99.90;;;;;;5075127;28;19924;-86
2021/12/13 11:55:53;;;;;;;;;;;12.10;99.90;;;;;;5078980;28;19924;-86
2021/12/13 11:58:40;;;;;;;;;;;12.10;99.90;;;;;;5076260;28;20380;-86
2021/12/13 12:01:30;;;;;;;;;;;12.20;99.90;;;;;;5072374;28;20291;-86
2021/12/13 12:04:12;;;;;;;;;;;12.30;99.90;;;;;;5053803;28;19935;-86
2021/12/13 12:07:01;;;;;;;;;;;12.30;99.90;;;;;;5069802;28;19921;-85
2021/12/13 12:09:45;;;;;;;;;;;12.30;99.90;;;;;;5068852;28;19920;-86
2021/12/13 12:12:29;;;;;;;;;;;12.30;99.90;;;;;;5069669;28;19924;-86
2021/12/13 12:15:00;;;;;;;;;;;12.30;99.90;;;;;;5069372;28;19928;-86
2021/12/13 12:17:27;;;;;;;;;;;12.30;99.90;;;;;;5068105;28;19930;-85
2021/12/13 12:19:56;;;;;;;;;;;12.30;99.90;;;;;;5068527;28;19944;-86
2021/12/13 12:22:23;;;;;;;;;;;12.30;99.90;;;;;;5068464;28;20352;-85
2021/12/13 12:24:53;;;;;;;;;;;12.40;99.90;;;;;;5067647;28;19946;-85
2021/12/13 12:27:22;;;;;;;;;;;12.40;99.90;;;;;;5062835;28;19934;-86
2021/12/13 12:29:52;;;;;;;;;;;12.40;99.90;;;;;;5067668;28;19923;-86
2021/12/13 12:32:20;;;;;;;;;;;12.40;99.90;;;;;;5066271;28;20356;-86
2021/12/13 12:34:49;;;;;;;;;;;12.30;99.90;;;;;;5067853;28;20471;-86
2021/12/13 12:37:38;;;;;;;;;;;12.30;99.90;;;;;;5069901;28;19930;-85
2021/12/13 12:40:19;;;;;;;;;;;12.30;99.90;;;;;;5062885;28;19924;-86
2021/12/13 12:42:46;;;;;;;;;;;12.30;99.90;;;;;;5068486;28;19939;-86
2021/12/13 12:45:17;;;;;;;;;;;12.30;99.90;;;;;;5068709;28;19960;-86
2021/12/13 12:48:02;;;;;;;;;;;12.30;99.90;;;;;;5068620;28;19925;-85
2021/12/13 12:50:31;;;;;;;;;;;12.70;99.90;;;;;;5072958;28;19921;-85
2021/12/13 12:52:59;;;;;;;;;;;12.10;99.90;;;;;;5068438;28;19943;-85
2021/12/13 12:55:29;;;;;;;;;;;12.10;99.90;;;;;;5067863;28;19928;-86
2021/12/13 12:57:57;;;;;;;;;;;12.10;99.90;;;;;;5068415;28;20006;-85
2021/12/13 13:00:24;;;;;;;;;;;12.10;99.90;;;;;;5069708;28;19924;-86
2021/12/13 13:02:51;;;;;;;;;;;12.00;99.90;;;;;;5086674;28;19991;-84
2021/12/13 13:05:19;;;;;;;;;;;12.00;99.90;;;;;;5079392;28;19935;-85
2021/12/13 13:07:46;;;;;;;;;;;12.00;99.90;;;;;;5076701;28;20307;-85
2021/12/13 13:10:23;;;;;;;;;;;12.00;99.90;;;;;;5081421;28;19925;-85
2021/12/13 13:12:52;;;;;;;;;;;12.00;99.90;;;;;;5070295;28;19951;-86
2021/12/13 13:15:20;;;;;;;;;;;12.00;99.90;;;;;;5069562;28;19928;-85
2021/12/13 13:17:50;;;;;;;;;;;12.00;99.90;;;;;;5067274;28;19978;-85
2021/12/13 13:20:19;;;;;;;;;;;11.90;99.90;;;;;;5069688;28;19947;-85
2021/12/13 13:22:47;;;;;;;;;;;11.90;99.90;;;;;;5071093;28;19924;-85
2021/12/13 13:25:15;;;;;;;;;;;11.80;99.90;;;;;;5070108;28;19928;-85
2021/12/13 13:27:42;;;;;;;;;;;12.40;99.90;;;;;;5082869;28;19930;-85
2021/12/13 13:30:13;;;;;;;;;;;11.80;99.90;;;;;;5072416;28;19988;-85
2021/12/13 13:32:40;;;;;;;;;;;11.70;99.90;;;;;;5066586;28;19920;-85
2021/12/13 13:35:07;;;;;;;;;;;11.70;99.90;;;;;;5064482;28;19924;-85
2021/12/13 13:37:38;;;;;;;;;;;11.60;99.90;;;;;;5069875;28;20388;-87
2021/12/13 13:40:07;;;;;;;;;;;11.60;99.90;;;;;;5068343;28;19931;-86
2021/12/13 13:42:35;;;;;;;;;;;11.60;99.90;;;;;;5069186;28;20023;-86
2021/12/13 13:45:05;;;;;;;;;;;11.60;99.90;;;;;;5067953;28;19967;-86
2021/12/13 13:47:34;;;;;;;;;;;11.60;99.90;;;;;;5068497;28;19924;-86
2021/12/13 13:50:17;;;;;;;;;;;10.30;99.90;;;;;;5066993;28;19924;-86
2021/12/13 13:52:45;;;;;;;;;;;11.60;99.90;;;;;;5067749;28;19924;-86
2021/12/13 13:55:20;;;;;;;;;;;11.50;99.90;;;;;;5066129;28;19986;-87
2021/12/13 13:57:48;;;;;;;;;;;11.50;99.90;;;;;;5066710;28;19947;-86
2021/12/13 14:00:16;;;;;;;;;;;11.50;99.90;;;;;;5069608;28;19925;-87
2021/12/13 14:02:44;;;;;;;;;;;11.40;99.90;;;;;;5070762;28;19931;-86
2021/12/13 14:05:11;;;;;;;;;;;11.40;99.90;;;;;;5067705;28;19927;-86
2021/12/13 14:07:39;;;;;;;;;;;11.40;99.90;;;;;;5068066;28;19951;-85
2021/12/13 14:10:09;;;;;;;;;;;11.30;99.90;;;;;;5075736;28;20391;-88
2021/12/13 14:12:37;;;;;;;;;;;11.30;99.90;;;;;;5087397;28;20077;-87
2021/12/13 14:15:10;;;;;;;;;;;11.30;99.90;;;;;;5081882;28;19954;-88
2021/12/13 14:17:39;;;;;;;;;;;11.30;99.90;;;;;;5088389;28;19908;-88
2021/12/13 14:20:22;;;;;;;;;;;11.30;99.90;;;;;;5094731;28;20062;-87
2021/12/13 14:22:49;;;;;;;;;;;11.30;99.90;;;;;;5088427;28;19931;-87
2021/12/13 14:25:24;;;;;;;;;;;11.20;99.90;;;;;;5074467;28;19928;-86
2021/12/13 14:27:51;;;;;;;;;;;11.20;99.90;;;;;;5086164;28;19908;-88
2021/12/13 14:30:20;;;;;;;;;;;11.20;99.90;;;;;;5079232;28;19920;-86
2021/12/13 14:32:49;;;;;;;;;;;11.20;99.90;;;;;;5073690;28;19990;-86
2021/12/13 14:35:17;;;;;;;;;;;11.20;99.90;;;;;;5072051;28;19935;-86
2021/12/13 14:37:45;;;;;;;;;;;11.90;99.90;;;;;;5074184;28;19920;-86
2021/12/13 14:40:12;;;;;;;;;;;13.10;99.90;;;;;;5073210;28;19924;-85
2021/12/13 14:42:39;;;;;;;;;;;11.10;99.90;;;;;;5070899;28;19924;-87
2021/12/13 14:45:08;;;;;;;;;;;11.10;99.90;;;;;;5073119;28;19928;-87